sensor_id;sensor_type;location;lat;lon;timestamp;temperature;humidity
66740;DHT22;53653;52.188;8.602;2022-08-19T00:00:35;19.03;80.81
66740;DHT22;53653;52.188;8.602;2022-08-19T00:03:01;18.96;81.04
66740;DHT22;53653;52.188;8.602;2022-08-19T00:05:26;18.85;81.47
66740;DHT22;53653;52.188;8.602;2022-08-19T00:07:52;18.82;81.79
66740;DHT22;53653;52.188;8.602;2022-08-19T00:10:19;18.89;81.53
66740;DHT22;53653;52.188;8.602;2022-08-19T00:12:45;18.92;81.51
66740;DHT22;53653;52.188;8.602;2022-08-19T00:15:13;18.96;81.21
66740;DHT22;53653;52.188;8.602;2022-08-19T00:17:41;18.99;81.17
66740;DHT22;53653;52.188;8.602;2022-08-19T00:20:09;19.01;81.05
66740;DHT22;53653;52.188;8.602;2022-08-19T00:22:36;18.96;81.35
66740;DHT22;53653;52.188;8.602;2022-08-19T00:25:03;18.91;81.52
66740;DHT22;53653;52.188;8.602;2022-08-19T00:27:28;18.94;81.32
66740;DHT22;53653;52.188;8.602;2022-08-19T00:29:54;19.01;81.02
66740;DHT22;53653;52.188;8.602;2022-08-19T00:32:19;19.15;80.45
66740;DHT22;53653;52.188;8.602;2022-08-19T00:34:46;19.24;80.27
66740;DHT22;53653;52.188;8.602;2022-08-19T00:37:11;19.33;79.18
66740;DHT22;53653;52.188;8.602;2022-08-19T00:39:37;19.34;79.19
66740;DHT22;53653;52.188;8.602;2022-08-19T00:42:02;19.36;79.19
66740;DHT22;53653;52.188;8.602;2022-08-19T00:44:29;19.31;79.53
66740;DHT22;53653;52.188;8.602;2022-08-19T00:46:57;19.29;79.70
66740;DHT22;53653;52.188;8.602;2022-08-19T00:52:03;19.19;80.17
66740;DHT22;53653;52.188;8.602;2022-08-19T00:54:29;18.96;80.90
66740;DHT22;53653;52.188;8.602;2022-08-19T00:56:57;18.84;81.28
66740;DHT22;53653;52.188;8.602;2022-08-19T00:59:23;18.92;80.81
66740;DHT22;53653;52.188;8.602;2022-08-19T01:01:48;18.94;81.05
66740;DHT22;53653;52.188;8.602;2022-08-19T01:04:14;18.85;81.30
66740;DHT22;53653;52.188;8.602;2022-08-19T01:06:40;18.72;81.88
66740;DHT22;53653;52.188;8.602;2022-08-19T01:09:08;18.61;82.54
66740;DHT22;53653;52.188;8.602;2022-08-19T01:11:37;18.54;82.69
66740;DHT22;53653;52.188;8.602;2022-08-19T01:14:06;18.53;82.86
66740;DHT22;53653;52.188;8.602;2022-08-19T01:16:32;18.48;82.93
66740;DHT22;53653;52.188;8.602;2022-08-19T01:18:58;18.53;82.55
66740;DHT22;53653;52.188;8.602;2022-08-19T01:21:32;18.55;82.58
66740;DHT22;53653;52.188;8.602;2022-08-19T01:23:59;18.51;82.77
66740;DHT22;53653;52.188;8.602;2022-08-19T01:26:26;18.47;82.78
66740;DHT22;53653;52.188;8.602;2022-08-19T01:28:54;18.50;82.81
66740;DHT22;53653;52.188;8.602;2022-08-19T01:31:24;18.50;82.66
66740;DHT22;53653;52.188;8.602;2022-08-19T01:33:51;18.51;82.57
66740;DHT22;53653;52.188;8.602;2022-08-19T01:36:40;18.50;82.61
66740;DHT22;53653;52.188;8.602;2022-08-19T01:39:11;18.58;82.22
66740;DHT22;53653;52.188;8.602;2022-08-19T01:41:37;18.68;81.07
66740;DHT22;53653;52.188;8.602;2022-08-19T01:44:03;18.75;80.75
66740;DHT22;53653;52.188;8.602;2022-08-19T01:46:30;18.76;80.71
66740;DHT22;53653;52.188;8.602;2022-08-19T01:48:56;18.74;81.14
66740;DHT22;53653;52.188;8.602;2022-08-19T01:51:21;18.75;80.87
66740;DHT22;53653;52.188;8.602;2022-08-19T01:53:48;18.71;80.98
66740;DHT22;53653;52.188;8.602;2022-08-19T01:56:14;18.67;81.07
66740;DHT22;53653;52.188;8.602;2022-08-19T01:58:47;18.55;81.55
66740;DHT22;53653;52.188;8.602;2022-08-19T02:01:16;18.48;81.85
66740;DHT22;53653;52.188;8.602;2022-08-19T02:03:42;18.41;82.11
66740;DHT22;53653;52.188;8.602;2022-08-19T02:06:08;18.34;82.61
66740;DHT22;53653;52.188;8.602;2022-08-19T02:08:36;18.27;82.93
66740;DHT22;53653;52.188;8.602;2022-08-19T02:11:02;18.18;82.94
66740;DHT22;53653;52.188;8.602;2022-08-19T02:13:27;18.22;83.56
66740;DHT22;53653;52.188;8.602;2022-08-19T02:15:53;18.27;83.33
66740;DHT22;53653;52.188;8.602;2022-08-19T02:18:18;18.26;82.89
66740;DHT22;53653;52.188;8.602;2022-08-19T02:20:44;18.26;82.75
66740;DHT22;53653;52.188;8.602;2022-08-19T02:23:11;18.27;82.52
66740;DHT22;53653;52.188;8.602;2022-08-19T02:25:37;18.23;82.49
66740;DHT22;53653;52.188;8.602;2022-08-19T02:28:03;18.22;82.61
66740;DHT22;53653;52.188;8.602;2022-08-19T02:30:29;18.23;82.89
66740;DHT22;53653;52.188;8.602;2022-08-19T02:32:55;18.17;83.09
66740;DHT22;53653;52.188;8.602;2022-08-19T02:35:20;18.16;83.18
66740;DHT22;53653;52.188;8.602;2022-08-19T02:37:46;18.14;83.26
66740;DHT22;53653;52.188;8.602;2022-08-19T02:40:31;18.12;83.23
66740;DHT22;53653;52.188;8.602;2022-08-19T02:43:01;18.02;83.43
66740;DHT22;53653;52.188;8.602;2022-08-19T02:45:32;18.00;83.63
66740;DHT22;53653;52.188;8.602;2022-08-19T02:47:58;18.00;83.65
66740;DHT22;53653;52.188;8.602;2022-08-19T02:50:23;17.78;84.12
66740;DHT22;53653;52.188;8.602;2022-08-19T02:52:48;17.82;84.19
66740;DHT22;53653;52.188;8.602;2022-08-19T02:55:14;17.75;84.19
66740;DHT22;53653;52.188;8.602;2022-08-19T02:57:40;17.71;84.10
66740;DHT22;53653;52.188;8.602;2022-08-19T03:00:07;17.55;84.85
66740;DHT22;53653;52.188;8.602;2022-08-19T03:02:33;17.49;85.02
66740;DHT22;53653;52.188;8.602;2022-08-19T03:04:59;17.54;84.78
66740;DHT22;53653;52.188;8.602;2022-08-19T03:07:24;17.54;84.54
66740;DHT22;53653;52.188;8.602;2022-08-19T03:09:49;17.52;84.74
66740;DHT22;53653;52.188;8.602;2022-08-19T03:12:15;17.54;84.72
66740;DHT22;53653;52.188;8.602;2022-08-19T03:14:40;17.62;84.40
66740;DHT22;53653;52.188;8.602;2022-08-19T03:17:06;17.66;84.03
66740;DHT22;53653;52.188;8.602;2022-08-19T03:19:31;17.72;83.61
66740;DHT22;53653;52.188;8.602;2022-08-19T03:21:57;17.74;83.23
66740;DHT22;53653;52.188;8.602;2022-08-19T03:24:24;17.72;83.17
66740;DHT22;53653;52.188;8.602;2022-08-19T03:26:54;17.75;83.16
66740;DHT22;53653;52.188;8.602;2022-08-19T03:29:24;17.71;83.39
66740;DHT22;53653;52.188;8.602;2022-08-19T03:31:50;17.71;83.41
66740;DHT22;53653;52.188;8.602;2022-08-19T03:34:25;17.68;83.45
66740;DHT22;53653;52.188;8.602;2022-08-19T03:36:58;17.65;83.59
66740;DHT22;53653;52.188;8.602;2022-08-19T03:39:24;17.62;83.95
66740;DHT22;53653;52.188;8.602;2022-08-19T03:41:51;17.59;84.17
66740;DHT22;53653;52.188;8.602;2022-08-19T03:44:20;17.56;84.25
66740;DHT22;53653;52.188;8.602;2022-08-19T03:46:51;17.48;84.59
66740;DHT22;53653;52.188;8.602;2022-08-19T03:49:19;17.47;84.67
66740;DHT22;53653;52.188;8.602;2022-08-19T03:51:45;17.42;84.77
66740;DHT22;53653;52.188;8.602;2022-08-19T03:54:13;17.41;84.84
66740;DHT22;53653;52.188;8.602;2022-08-19T03:56:41;17.41;85.10
66740;DHT22;53653;52.188;8.602;2022-08-19T03:59:11;17.37;85.36
66740;DHT22;53653;52.188;8.602;2022-08-19T04:01:36;17.32;85.44
66740;DHT22;53653;52.188;8.602;2022-08-19T04:04:02;17.35;85.49
66740;DHT22;53653;52.188;8.602;2022-08-19T04:06:30;17.35;85.32
66740;DHT22;53653;52.188;8.602;2022-08-19T04:08:57;17.35;85.00
66740;DHT22;53653;52.188;8.602;2022-08-19T04:11:27;17.34;85.06
66740;DHT22;53653;52.188;8.602;2022-08-19T04:13:53;17.31;85.34
66740;DHT22;53653;52.188;8.602;2022-08-19T04:16:21;17.35;85.24
66740;DHT22;53653;52.188;8.602;2022-08-19T04:18:47;17.34;85.41
66740;DHT22;53653;52.188;8.602;2022-08-19T04:21:22;17.27;85.82
66740;DHT22;53653;52.188;8.602;2022-08-19T04:23:48;17.28;86.24
66740;DHT22;53653;52.188;8.602;2022-08-19T04:26:15;17.18;86.23
66740;DHT22;53653;52.188;8.602;2022-08-19T04:28:43;17.23;85.90
66740;DHT22;53653;52.188;8.602;2022-08-19T04:31:14;17.27;85.59
66740;DHT22;53653;52.188;8.602;2022-08-19T04:33:40;17.30;85.76
66740;DHT22;53653;52.188;8.602;2022-08-19T04:36:05;17.28;85.69
66740;DHT22;53653;52.188;8.602;2022-08-19T04:38:31;17.34;85.29
66740;DHT22;53653;52.188;8.602;2022-08-19T04:40:56;17.38;85.22
66740;DHT22;53653;52.188;8.602;2022-08-19T04:43:40;17.37;85.28
66740;DHT22;53653;52.188;8.602;2022-08-19T04:46:10;17.37;85.28
66740;DHT22;53653;52.188;8.602;2022-08-19T04:48:38;17.37;85.28
66740;DHT22;53653;52.188;8.602;2022-08-19T04:51:09;17.41;85.17
66740;DHT22;53653;52.188;8.602;2022-08-19T04:53:37;17.39;85.34
66740;DHT22;53653;52.188;8.602;2022-08-19T04:56:06;17.41;85.38
66740;DHT22;53653;52.188;8.602;2022-08-19T04:58:35;17.48;85.34
66740;DHT22;53653;52.188;8.602;2022-08-19T05:01:01;17.54;84.97
66740;DHT22;53653;52.188;8.602;2022-08-19T05:03:26;17.54;84.99
66740;DHT22;53653;52.188;8.602;2022-08-19T05:05:52;17.54;85.02
66740;DHT22;53653;52.188;8.602;2022-08-19T05:08:20;17.62;84.81
66740;DHT22;53653;52.188;8.602;2022-08-19T05:10:48;17.61;84.68
66740;DHT22;53653;52.188;8.602;2022-08-19T05:13:16;17.62;84.51
66740;DHT22;53653;52.188;8.602;2022-08-19T05:15:42;17.59;84.47
66740;DHT22;53653;52.188;8.602;2022-08-19T05:18:08;17.65;84.35
66740;DHT22;53653;52.188;8.602;2022-08-19T05:20:52;17.87;84.00
66740;DHT22;53653;52.188;8.602;2022-08-19T05:23:36;18.13;83.02
66740;DHT22;53653;52.188;8.602;2022-08-19T05:26:02;18.29;82.55
66740;DHT22;53653;52.188;8.602;2022-08-19T05:28:27;18.48;81.36
66740;DHT22;53653;52.188;8.602;2022-08-19T05:30:53;18.61;81.08
66740;DHT22;53653;52.188;8.602;2022-08-19T05:33:21;18.81;80.52
66740;DHT22;53653;52.188;8.602;2022-08-19T05:35:47;18.88;79.93
66740;DHT22;53653;52.188;8.602;2022-08-19T05:38:15;18.91;79.88
66740;DHT22;53653;52.188;8.602;2022-08-19T05:40:41;18.82;79.93
66740;DHT22;53653;52.188;8.602;2022-08-19T05:43:11;18.79;80.69
66740;DHT22;53653;52.188;8.602;2022-08-19T05:45:41;18.89;80.17
66740;DHT22;53653;52.188;8.602;2022-08-19T05:48:07;18.94;79.92
66740;DHT22;53653;52.188;8.602;2022-08-19T05:50:36;19.03;80.18
66740;DHT22;53653;52.188;8.602;2022-08-19T05:53:02;19.09;79.56
66740;DHT22;53653;52.188;8.602;2022-08-19T05:55:27;19.06;79.62
66740;DHT22;53653;52.188;8.602;2022-08-19T05:57:53;19.20;79.57
66740;DHT22;53653;52.188;8.602;2022-08-19T06:00:18;19.37;78.61
66740;DHT22;53653;52.188;8.602;2022-08-19T06:02:44;19.60;78.05
66740;DHT22;53653;52.188;8.602;2022-08-19T06:05:10;19.64;77.40
66740;DHT22;53653;52.188;8.602;2022-08-19T06:07:37;19.68;77.09
66740;DHT22;53653;52.188;8.602;2022-08-19T06:10:05;19.81;76.73
66740;DHT22;53653;52.188;8.602;2022-08-19T06:12:31;19.92;76.50
66740;DHT22;53653;52.188;8.602;2022-08-19T06:15:04;19.94;76.24
66740;DHT22;53653;52.188;8.602;2022-08-19T06:17:30;19.89;76.28
66740;DHT22;53653;52.188;8.602;2022-08-19T06:19:56;19.84;76.21
66740;DHT22;53653;52.188;8.602;2022-08-19T06:22:22;19.88;76.62
66740;DHT22;53653;52.188;8.602;2022-08-19T06:24:47;20.05;75.91
66740;DHT22;53653;52.188;8.602;2022-08-19T06:27:13;20.22;75.27
66740;DHT22;53653;52.188;8.602;2022-08-19T06:29:38;20.33;75.06
66740;DHT22;53653;52.188;8.602;2022-08-19T06:32:04;20.57;74.00
66740;DHT22;53653;52.188;8.602;2022-08-19T06:34:32;20.76;73.14
66740;DHT22;53653;52.188;8.602;2022-08-19T06:36:59;20.98;72.34
66740;DHT22;53653;52.188;8.602;2022-08-19T06:39:28;21.30;72.05
66740;DHT22;53653;52.188;8.602;2022-08-19T06:41:57;21.27;71.91
66740;DHT22;53653;52.188;8.602;2022-08-19T06:44:25;21.34;71.08
66740;DHT22;53653;52.188;8.602;2022-08-19T06:46:52;21.39;70.71
66740;DHT22;53653;52.188;8.602;2022-08-19T06:49:17;21.67;70.90
66740;DHT22;53653;52.188;8.602;2022-08-19T06:51:45;21.92;69.12
66740;DHT22;53653;52.188;8.602;2022-08-19T06:54:15;22.07;68.68
66740;DHT22;53653;52.188;8.602;2022-08-19T06:56:42;21.92;68.74
66740;DHT22;53653;52.188;8.602;2022-08-19T06:59:13;21.89;68.94
66740;DHT22;53653;52.188;8.602;2022-08-19T07:01:42;21.92;68.87
66740;DHT22;53653;52.188;8.602;2022-08-19T07:04:13;22.13;68.73
66740;DHT22;53653;52.188;8.602;2022-08-19T07:06:40;22.27;68.19
66740;DHT22;53653;52.188;8.602;2022-08-19T07:09:06;22.33;67.35
66740;DHT22;53653;52.188;8.602;2022-08-19T07:11:32;22.22;67.80
66740;DHT22;53653;52.188;8.602;2022-08-19T07:13:59;22.37;67.45
66740;DHT22;53653;52.188;8.602;2022-08-19T07:16:25;22.68;66.59
66740;DHT22;53653;52.188;8.602;2022-08-19T07:18:51;22.92;65.71
66740;DHT22;53653;52.188;8.602;2022-08-19T07:21:23;23.15;64.59
66740;DHT22;53653;52.188;8.602;2022-08-19T07:23:50;23.23;63.98
66740;DHT22;53653;52.188;8.602;2022-08-19T07:26:28;23.15;64.19
66740;DHT22;53653;52.188;8.602;2022-08-19T07:28:55;23.13;64.18
66740;DHT22;53653;52.188;8.602;2022-08-19T07:31:22;23.22;63.97
66740;DHT22;53653;52.188;8.602;2022-08-19T07:33:50;23.31;63.77
66740;DHT22;53653;52.188;8.602;2022-08-19T07:36:20;23.46;63.83
66740;DHT22;53653;52.188;8.602;2022-08-19T07:38:50;23.68;62.98
66740;DHT22;53653;52.188;8.602;2022-08-19T07:41:20;23.85;61.93
66740;DHT22;53653;52.188;8.602;2022-08-19T07:43:46;23.89;62.01
66740;DHT22;53653;52.188;8.602;2022-08-19T07:46:12;24.02;62.21
66740;DHT22;53653;52.188;8.602;2022-08-19T07:48:40;24.35;60.69
66740;DHT22;53653;52.188;8.602;2022-08-19T07:51:07;24.57;60.82
66740;DHT22;53653;52.188;8.602;2022-08-19T07:53:35;24.74;60.72
66740;DHT22;53653;52.188;8.602;2022-08-19T07:56:01;25.04;58.89
66740;DHT22;53653;52.188;8.602;2022-08-19T07:58:31;25.01;59.76
66740;DHT22;53653;52.188;8.602;2022-08-19T08:00:57;25.21;59.10
66740;DHT22;53653;52.188;8.602;2022-08-19T08:03:23;25.21;58.69
66740;DHT22;53653;52.188;8.602;2022-08-19T08:06:12;25.25;58.35
66740;DHT22;53653;52.188;8.602;2022-08-19T08:08:57;25.27;58.90
66740;DHT22;53653;52.188;8.602;2022-08-19T08:11:58;25.58;58.68
66740;DHT22;53653;52.188;8.602;2022-08-19T08:16:58;25.59;57.75
66740;DHT22;53653;52.188;8.602;2022-08-19T08:19:25;25.96;57.07
66740;DHT22;53653;52.188;8.602;2022-08-19T08:21:55;26.07;56.73
66740;DHT22;53653;52.188;8.602;2022-08-19T08:24:21;25.90;55.99
66740;DHT22;53653;52.188;8.602;2022-08-19T08:26:46;26.08;56.77
66740;DHT22;53653;52.188;8.602;2022-08-19T08:29:12;26.37;54.85
66740;DHT22;53653;52.188;8.602;2022-08-19T08:31:43;26.30;55.39
66740;DHT22;53653;52.188;8.602;2022-08-19T08:34:11;26.16;56.28
66740;DHT22;53653;52.188;8.602;2022-08-19T08:36:38;26.51;55.09
66740;DHT22;53653;52.188;8.602;2022-08-19T08:39:11;26.67;54.03
66740;DHT22;53653;52.188;8.602;2022-08-19T08:44:23;27.07;52.43
66740;DHT22;53653;52.188;8.602;2022-08-19T08:46:53;27.12;52.75
66740;DHT22;53653;52.188;8.602;2022-08-19T08:49:41;26.67;53.96
66740;DHT22;53653;52.188;8.602;2022-08-19T08:52:26;27.31;52.65
66740;DHT22;53653;52.188;8.602;2022-08-19T08:54:57;27.41;52.41
66740;DHT22;53653;52.188;8.602;2022-08-19T08:57:25;27.70;51.11
66740;DHT22;53653;52.188;8.602;2022-08-19T08:59:53;27.71;51.19
66740;DHT22;53653;52.188;8.602;2022-08-19T09:02:20;27.30;50.77
66740;DHT22;53653;52.188;8.602;2022-08-19T09:04:45;27.60;51.20
66740;DHT22;53653;52.188;8.602;2022-08-19T09:09:51;27.34;51.06
66740;DHT22;53653;52.188;8.602;2022-08-19T09:12:41;27.84;50.29
66740;DHT22;53653;52.188;8.602;2022-08-19T09:15:13;28.36;48.33
66740;DHT22;53653;52.188;8.602;2022-08-19T09:17:39;28.16;48.35
66740;DHT22;53653;52.188;8.602;2022-08-19T09:22:38;27.91;47.01
66740;DHT22;53653;52.188;8.602;2022-08-19T09:25:05;27.82;45.49
66740;DHT22;53653;52.188;8.602;2022-08-19T09:27:31;27.94;45.83
66740;DHT22;53653;52.188;8.602;2022-08-19T09:29:57;27.39;46.30
66740;DHT22;53653;52.188;8.602;2022-08-19T09:32:23;27.23;47.48
66740;DHT22;53653;52.188;8.602;2022-08-19T09:34:50;26.93;47.59
66740;DHT22;53653;52.188;8.602;2022-08-19T09:37:19;27.50;46.56
66740;DHT22;53653;52.188;8.602;2022-08-19T09:39:45;27.81;46.12
66740;DHT22;53653;52.188;8.602;2022-08-19T09:42:10;27.89;45.71
66740;DHT22;53653;52.188;8.602;2022-08-19T09:44:39;27.91;45.67
66740;DHT22;53653;52.188;8.602;2022-08-19T09:47:05;28.18;45.25
66740;DHT22;53653;52.188;8.602;2022-08-19T09:49:32;28.15;46.22
66740;DHT22;53653;52.188;8.602;2022-08-19T09:51:58;28.60;45.37
66740;DHT22;53653;52.188;8.602;2022-08-19T09:54:24;28.63;45.31
66740;DHT22;53653;52.188;8.602;2022-08-19T09:56:50;28.06;45.98
66740;DHT22;53653;52.188;8.602;2022-08-19T09:59:16;28.18;45.80
66740;DHT22;53653;52.188;8.602;2022-08-19T10:01:41;27.19;47.20
66740;DHT22;53653;52.188;8.602;2022-08-19T10:04:07;27.68;46.39
66740;DHT22;53653;52.188;8.602;2022-08-19T10:06:39;28.42;44.25
66740;DHT22;53653;52.188;8.602;2022-08-19T10:09:06;28.64;44.54
66740;DHT22;53653;52.188;8.602;2022-08-19T10:11:34;28.73;44.14
66740;DHT22;53653;52.188;8.602;2022-08-19T10:14:01;28.53;44.72
66740;DHT22;53653;52.188;8.602;2022-08-19T10:16:26;28.95;43.58
66740;DHT22;53653;52.188;8.602;2022-08-19T10:18:53;29.00;43.55
66740;DHT22;53653;52.188;8.602;2022-08-19T10:21:24;29.05;43.69
66740;DHT22;53653;52.188;8.602;2022-08-19T10:23:53;29.16;43.37
66740;DHT22;53653;52.188;8.602;2022-08-19T10:26:23;29.03;43.24
66740;DHT22;53653;52.188;8.602;2022-08-19T10:28:49;27.70;45.44
66740;DHT22;53653;52.188;8.602;2022-08-19T10:31:19;27.77;45.53
66740;DHT22;53653;52.188;8.602;2022-08-19T10:33:45;27.44;46.27
66740;DHT22;53653;52.188;8.602;2022-08-19T10:36:15;28.19;44.69
66740;DHT22;53653;52.188;8.602;2022-08-19T10:38:43;28.61;44.39
66740;DHT22;53653;52.188;8.602;2022-08-19T10:41:16;29.59;42.10
66740;DHT22;53653;52.188;8.602;2022-08-19T10:43:42;30.07;41.24
66740;DHT22;53653;52.188;8.602;2022-08-19T10:46:13;30.13;40.40
66740;DHT22;53653;52.188;8.602;2022-08-19T10:48:40;30.16;40.39
66740;DHT22;53653;52.188;8.602;2022-08-19T10:51:06;29.76;41.19
66740;DHT22;53653;52.188;8.602;2022-08-19T10:53:50;28.97;42.29
66740;DHT22;53653;52.188;8.602;2022-08-19T10:56:16;28.59;43.85
66740;DHT22;53653;52.188;8.602;2022-08-19T10:59:01;28.32;44.06
66740;DHT22;53653;52.188;8.602;2022-08-19T11:01:28;29.21;41.79
66740;DHT22;53653;52.188;8.602;2022-08-19T11:03:55;29.73;40.43
66740;DHT22;53653;52.188;8.602;2022-08-19T11:06:23;29.76;40.19
66740;DHT22;53653;52.188;8.602;2022-08-19T11:08:51;29.66;40.50
66740;DHT22;53653;52.188;8.602;2022-08-19T11:11:16;29.79;40.62
66740;DHT22;53653;52.188;8.602;2022-08-19T11:13:42;29.80;39.85
66740;DHT22;53653;52.188;8.602;2022-08-19T11:16:17;29.72;39.76
66740;DHT22;53653;52.188;8.602;2022-08-19T11:18:46;29.29;39.93
66740;DHT22;53653;52.188;8.602;2022-08-19T11:23:37;29.49;37.30
66740;DHT22;53653;52.188;8.602;2022-08-19T11:26:02;29.72;37.16
66740;DHT22;53653;52.188;8.602;2022-08-19T11:28:28;30.14;36.29
66740;DHT22;53653;52.188;8.602;2022-08-19T11:30:54;30.25;36.78
66740;DHT22;53653;52.188;8.602;2022-08-19T11:33:19;30.23;36.79
66740;DHT22;53653;52.188;8.602;2022-08-19T11:35:45;30.61;36.75
66740;DHT22;53653;52.188;8.602;2022-08-19T11:38:10;30.55;36.58
66740;DHT22;53653;52.188;8.602;2022-08-19T11:40:36;30.69;36.26
66740;DHT22;53653;52.188;8.602;2022-08-19T11:43:03;31.03;36.19
66740;DHT22;53653;52.188;8.602;2022-08-19T11:45:29;30.80;36.89
66740;DHT22;53653;52.188;8.602;2022-08-19T11:47:55;31.13;36.38
66740;DHT22;53653;52.188;8.602;2022-08-19T11:50:21;31.20;36.04
66740;DHT22;53653;52.188;8.602;2022-08-19T11:52:48;30.82;36.47
66740;DHT22;53653;52.188;8.602;2022-08-19T11:55:15;30.58;36.42
66740;DHT22;53653;52.188;8.602;2022-08-19T11:57:41;29.79;37.50
66740;DHT22;53653;52.188;8.602;2022-08-19T12:00:08;29.65;38.60
66740;DHT22;53653;52.188;8.602;2022-08-19T12:02:35;29.45;37.45
66740;DHT22;53653;52.188;8.602;2022-08-19T12:05:00;29.45;37.44
66740;DHT22;53653;52.188;8.602;2022-08-19T12:07:29;29.58;37.17
66740;DHT22;53653;52.188;8.602;2022-08-19T12:09:59;29.73;38.21
66740;DHT22;53653;52.188;8.602;2022-08-19T12:12:26;30.35;37.19
66740;DHT22;53653;52.188;8.602;2022-08-19T12:14:52;30.62;37.32
66740;DHT22;53653;52.188;8.602;2022-08-19T12:17:25;31.16;36.27
66740;DHT22;53653;52.188;8.602;2022-08-19T12:19:52;31.27;36.60
66740;DHT22;53653;52.188;8.602;2022-08-19T12:22:17;30.59;36.75
66740;DHT22;53653;52.188;8.602;2022-08-19T12:24:43;30.48;37.44
66740;DHT22;53653;52.188;8.602;2022-08-19T12:27:09;29.45;38.85
66740;DHT22;53653;52.188;8.602;2022-08-19T12:29:34;30.16;38.58
66740;DHT22;53653;52.188;8.602;2022-08-19T12:31:59;30.13;38.36
66740;DHT22;53653;52.188;8.602;2022-08-19T12:34:29;30.42;38.27
66740;DHT22;53653;52.188;8.602;2022-08-19T12:37:01;30.42;38.66
66740;DHT22;53653;52.188;8.602;2022-08-19T12:39:27;30.21;39.41
66740;DHT22;53653;52.188;8.602;2022-08-19T12:41:53;30.28;39.41
66740;DHT22;53653;52.188;8.602;2022-08-19T12:44:18;30.25;39.46
66740;DHT22;53653;52.188;8.602;2022-08-19T12:46:44;30.28;39.18
66740;DHT22;53653;52.188;8.602;2022-08-19T12:49:10;30.51;39.14
66740;DHT22;53653;52.188;8.602;2022-08-19T12:51:35;30.25;39.29
66740;DHT22;53653;52.188;8.602;2022-08-19T12:54:01;30.47;38.78
66740;DHT22;53653;52.188;8.602;2022-08-19T12:56:27;30.24;38.44
66740;DHT22;53653;52.188;8.602;2022-08-19T12:58:52;29.89;40.07
66740;DHT22;53653;52.188;8.602;2022-08-19T13:01:18;30.09;39.47
66740;DHT22;53653;52.188;8.602;2022-08-19T13:03:45;30.44;39.21
66740;DHT22;53653;52.188;8.602;2022-08-19T13:06:11;30.40;38.83
66740;DHT22;53653;52.188;8.602;2022-08-19T13:08:37;30.35;39.49
66740;DHT22;53653;52.188;8.602;2022-08-19T13:11:15;29.80;39.48
66740;DHT22;53653;52.188;8.602;2022-08-19T13:13:44;29.87;39.71
66740;DHT22;53653;52.188;8.602;2022-08-19T13:16:13;30.41;38.57
66740;DHT22;53653;52.188;8.602;2022-08-19T13:18:41;30.35;38.47
66740;DHT22;53653;52.188;8.602;2022-08-19T13:21:09;30.18;38.74
66740;DHT22;53653;52.188;8.602;2022-08-19T13:23:36;29.76;39.44
66740;DHT22;53653;52.188;8.602;2022-08-19T13:26:04;29.65;39.38
66740;DHT22;53653;52.188;8.602;2022-08-19T13:28:30;29.84;39.41
66740;DHT22;53653;52.188;8.602;2022-08-19T13:31:20;30.21;37.46
66740;DHT22;53653;52.188;8.602;2022-08-19T13:34:05;30.62;36.56
66740;DHT22;53653;52.188;8.602;2022-08-19T13:36:32;30.93;37.13
66740;DHT22;53653;52.188;8.602;2022-08-19T13:38:57;30.83;37.63
66740;DHT22;53653;52.188;8.602;2022-08-19T13:41:23;30.57;37.45
66740;DHT22;53653;52.188;8.602;2022-08-19T13:43:49;30.01;38.73
66740;DHT22;53653;52.188;8.602;2022-08-19T13:46:14;29.94;39.34
66740;DHT22;53653;52.188;8.602;2022-08-19T13:48:40;29.52;39.20
66740;DHT22;53653;52.188;8.602;2022-08-19T13:51:06;29.35;39.80
66740;DHT22;53653;52.188;8.602;2022-08-19T13:53:38;29.36;39.69
66740;DHT22;53653;52.188;8.602;2022-08-19T13:56:10;29.56;39.41
66740;DHT22;53653;52.188;8.602;2022-08-19T13:58:37;29.96;38.00
66740;DHT22;53653;52.188;8.602;2022-08-19T14:01:03;30.10;38.14
66740;DHT22;53653;52.188;8.602;2022-08-19T14:03:30;30.09;38.66
66740;DHT22;53653;52.188;8.602;2022-08-19T14:05:55;29.55;38.87
66740;DHT22;53653;52.188;8.602;2022-08-19T14:08:22;29.52;39.29
66740;DHT22;53653;52.188;8.602;2022-08-19T14:10:48;29.72;39.14
66740;DHT22;53653;52.188;8.602;2022-08-19T14:13:19;30.00;39.09
66740;DHT22;53653;52.188;8.602;2022-08-19T14:15:46;30.11;39.18
66740;DHT22;53653;52.188;8.602;2022-08-19T14:18:13;29.97;39.32
66740;DHT22;53653;52.188;8.602;2022-08-19T14:20:39;29.83;39.26
66740;DHT22;53653;52.188;8.602;2022-08-19T14:23:04;29.38;40.67
66740;DHT22;53653;52.188;8.602;2022-08-19T14:25:33;29.24;40.47
66740;DHT22;53653;52.188;8.602;2022-08-19T14:27:59;28.81;41.30
66740;DHT22;53653;52.188;8.602;2022-08-19T14:30:28;28.86;41.16
66740;DHT22;53653;52.188;8.602;2022-08-19T14:32:55;28.91;40.68
66740;DHT22;53653;52.188;8.602;2022-08-19T14:35:22;28.59;41.36
66740;DHT22;53653;52.188;8.602;2022-08-19T14:37:48;28.80;41.63
66740;DHT22;53653;52.188;8.602;2022-08-19T14:40:17;29.21;40.40
66740;DHT22;53653;52.188;8.602;2022-08-19T14:42:45;29.69;39.17
66740;DHT22;53653;52.188;8.602;2022-08-19T14:45:13;29.86;38.46
66740;DHT22;53653;52.188;8.602;2022-08-19T14:47:41;30.06;38.11
66740;DHT22;53653;52.188;8.602;2022-08-19T14:50:10;30.04;37.95
66740;DHT22;53653;52.188;8.602;2022-08-19T14:52:36;29.69;38.76
66740;DHT22;53653;52.188;8.602;2022-08-19T14:55:03;29.49;39.10
66740;DHT22;53653;52.188;8.602;2022-08-19T14:57:29;29.61;39.28
66740;DHT22;53653;52.188;8.602;2022-08-19T14:59:54;29.42;39.58
66740;DHT22;53653;52.188;8.602;2022-08-19T15:02:20;29.29;39.65
66740;DHT22;53653;52.188;8.602;2022-08-19T15:04:46;29.63;39.07
66740;DHT22;53653;52.188;8.602;2022-08-19T15:07:11;29.82;39.09
66740;DHT22;53653;52.188;8.602;2022-08-19T15:09:37;30.11;38.01
66740;DHT22;53653;52.188;8.602;2022-08-19T15:12:03;30.35;37.69
66740;DHT22;53653;52.188;8.602;2022-08-19T15:14:29;29.67;39.13
66740;DHT22;53653;52.188;8.602;2022-08-19T15:17:01;29.79;39.17
66740;DHT22;53653;52.188;8.602;2022-08-19T15:19:27;30.10;38.10
66740;DHT22;53653;52.188;8.602;2022-08-19T15:21:53;29.52;39.60
66740;DHT22;53653;52.188;8.602;2022-08-19T15:24:20;29.63;39.34
66740;DHT22;53653;52.188;8.602;2022-08-19T15:26:45;29.67;39.29
66740;DHT22;53653;52.188;8.602;2022-08-19T15:29:11;29.66;39.54
66740;DHT22;53653;52.188;8.602;2022-08-19T15:31:39;29.29;40.15
66740;DHT22;53653;52.188;8.602;2022-08-19T15:34:05;29.21;40.20
66740;DHT22;53653;52.188;8.602;2022-08-19T15:36:31;29.05;40.77
66740;DHT22;53653;52.188;8.602;2022-08-19T15:38:56;29.10;40.80
66740;DHT22;53653;52.188;8.602;2022-08-19T15:41:26;28.74;40.81
66740;DHT22;53653;52.188;8.602;2022-08-19T15:44:01;28.73;40.98
66740;DHT22;53653;52.188;8.602;2022-08-19T15:46:31;28.88;40.48
66740;DHT22;53653;52.188;8.602;2022-08-19T15:48:57;28.80;40.97